FKYS

Yaoundé Nsimalen International Airport

Airport
ICAO code
FKYS
IATA Code
NSI
Summary
ICAO Region
AFI
ICAO Territory
Location

Nsimalen,

Serving
Yaoundé
Elevation
2278 ft
Coordinates
3° 43' 20" N , 11° 33' 11" E
KCC
Metar
Observation
FKYS 010900Z 00000KT 9999 BKN013 25/23 Q1016 NOSIG
Station
Yaounde
Date/Time
2022-12-01 09:00:00
Wind direction
Wind speed
00 kts
Lowest cloud amount
broken clouds
Temperature
25°C
Dew point
23°C
Humidity
88%
QNH
1016 hPa
Weather condition
n/a

Description

International airport serving Douala, Cameroon.

Climatology

Tropical Monsoon climate (Köppen climate classification Am) - monthly mean temperatures above 18°C in every month of the year and features wet and dry seasons. A tropical monsoon climate typically features less pronounced dry seasons than a tropical savanna climate and sees less variance in temperatures during the course of the year. The driest month nearly always occurs at or soon after the "winter" solstice.

Runways

Designator Length Width Surface Rops
1/19 3400 45 ASP Yes/Yes

Airport map

Aerial View

SKYbrary Partners:

Safety knowledge contributed by: